sensor_id;sensor_type;location;lat;lon;timestamp;P1;durP1;ratioP1;P2;durP2;ratioP2
870;SDS011;422;51.280;7.236;2024-02-26T00:00:39;5.40;;;4.03;;
870;SDS011;422;51.280;7.236;2024-02-26T00:03:07;4.90;;;3.57;;
870;SDS011;422;51.280;7.236;2024-02-26T00:05:34;4.50;;;3.43;;
870;SDS011;422;51.280;7.236;2024-02-26T00:08:03;6.33;;;3.63;;
870;SDS011;422;51.280;7.236;2024-02-26T00:10:31;4.27;;;3.57;;
870;SDS011;422;51.280;7.236;2024-02-26T00:13:00;4.50;;;3.73;;
870;SDS011;422;51.280;7.236;2024-02-26T00:15:27;6.03;;;3.77;;
870;SDS011;422;51.280;7.236;2024-02-26T00:17:55;4.20;;;3.73;;
870;SDS011;422;51.280;7.236;2024-02-26T00:20:22;4.03;;;3.27;;
870;SDS011;422;51.280;7.236;2024-02-26T00:22:49;4.60;;;3.30;;
870;SDS011;422;51.280;7.236;2024-02-26T00:25:17;4.33;;;3.20;;
870;SDS011;422;51.280;7.236;2024-02-26T00:27:44;4.83;;;3.40;;
870;SDS011;422;51.280;7.236;2024-02-26T00:30:13;4.90;;;3.50;;
870;SDS011;422;51.280;7.236;2024-02-26T00:32:41;4.40;;;3.50;;
870;SDS011;422;51.280;7.236;2024-02-26T00:35:08;3.57;;;3.07;;
870;SDS011;422;51.280;7.236;2024-02-26T00:37:36;5.10;;;3.27;;
870;SDS011;422;51.280;7.236;2024-02-26T00:40:03;4.10;;;3.23;;
870;SDS011;422;51.280;7.236;2024-02-26T00:42:32;4.60;;;3.27;;
870;SDS011;422;51.280;7.236;2024-02-26T00:44:59;5.30;;;3.80;;
870;SDS011;422;51.280;7.236;2024-02-26T00:47:28;4.57;;;3.73;;
870;SDS011;422;51.280;7.236;2024-02-26T00:49:56;3.93;;;3.27;;
870;SDS011;422;51.280;7.236;2024-02-26T00:52:23;5.17;;;3.87;;
870;SDS011;422;51.280;7.236;2024-02-26T00:54:50;4.37;;;3.67;;
870;SDS011;422;51.280;7.236;2024-02-26T00:57:17;3.60;;;3.10;;
870;SDS011;422;51.280;7.236;2024-02-26T00:59:45;5.63;;;3.53;;
870;SDS011;422;51.280;7.236;2024-02-26T01:02:13;4.83;;;3.33;;
870;SDS011;422;51.280;7.236;2024-02-26T01:04:42;5.03;;;3.63;;
870;SDS011;422;51.280;7.236;2024-02-26T01:07:09;6.83;;;3.60;;
870;SDS011;422;51.280;7.236;2024-02-26T01:09:37;4.10;;;3.60;;
870;SDS011;422;51.280;7.236;2024-02-26T01:12:04;6.60;;;3.73;;
870;SDS011;422;51.280;7.236;2024-02-26T01:14:33;4.30;;;3.70;;
870;SDS011;422;51.280;7.236;2024-02-26T01:17:00;4.97;;;3.23;;
870;SDS011;422;51.280;7.236;2024-02-26T01:19:28;5.17;;;3.40;;
870;SDS011;422;51.280;7.236;2024-02-26T01:21:56;5.00;;;3.47;;
870;SDS011;422;51.280;7.236;2024-02-26T01:24:24;4.70;;;3.50;;
870;SDS011;422;51.280;7.236;2024-02-26T01:26:51;6.40;;;3.33;;
870;SDS011;422;51.280;7.236;2024-02-26T01:29:18;4.37;;;3.47;;
870;SDS011;422;51.280;7.236;2024-02-26T01:31:46;5.03;;;3.73;;
870;SDS011;422;51.280;7.236;2024-02-26T01:34:13;4.10;;;3.20;;
870;SDS011;422;51.280;7.236;2024-02-26T01:36:40;4.70;;;3.50;;
870;SDS011;422;51.280;7.236;2024-02-26T01:39:09;4.27;;;3.43;;
870;SDS011;422;51.280;7.236;2024-02-26T01:41:38;5.23;;;3.40;;
870;SDS011;422;51.280;7.236;2024-02-26T01:44:06;4.97;;;3.77;;
870;SDS011;422;51.280;7.236;2024-02-26T01:46:34;7.90;;;4.00;;
870;SDS011;422;51.280;7.236;2024-02-26T01:49:02;4.80;;;3.60;;
870;SDS011;422;51.280;7.236;2024-02-26T01:51:29;4.57;;;3.60;;
870;SDS011;422;51.280;7.236;2024-02-26T01:53:58;5.70;;;3.63;;
870;SDS011;422;51.280;7.236;2024-02-26T01:56:29;6.00;;;3.40;;
870;SDS011;422;51.280;7.236;2024-02-26T01:58:57;5.33;;;3.63;;
870;SDS011;422;51.280;7.236;2024-02-26T02:01:25;6.60;;;3.93;;
870;SDS011;422;51.280;7.236;2024-02-26T02:03:54;4.40;;;3.70;;
870;SDS011;422;51.280;7.236;2024-02-26T02:06:24;3.87;;;3.27;;
870;SDS011;422;51.280;7.236;2024-02-26T02:08:53;7.40;;;3.50;;
870;SDS011;422;51.280;7.236;2024-02-26T02:11:21;5.20;;;3.27;;
870;SDS011;422;51.280;7.236;2024-02-26T02:13:49;4.87;;;3.47;;
870;SDS011;422;51.280;7.236;2024-02-26T02:16:17;4.43;;;3.40;;
870;SDS011;422;51.280;7.236;2024-02-26T02:18:44;6.70;;;3.73;;
870;SDS011;422;51.280;7.236;2024-02-26T02:21:12;4.33;;;3.20;;
870;SDS011;422;51.280;7.236;2024-02-26T02:23:40;6.30;;;3.80;;
870;SDS011;422;51.280;7.236;2024-02-26T02:26:11;4.80;;;3.30;;
870;SDS011;422;51.280;7.236;2024-02-26T02:28:39;5.97;;;4.07;;
870;SDS011;422;51.280;7.236;2024-02-26T02:31:07;5.97;;;3.97;;
870;SDS011;422;51.280;7.236;2024-02-26T02:33:34;5.90;;;3.43;;
870;SDS011;422;51.280;7.236;2024-02-26T02:36:02;3.83;;;3.30;;
870;SDS011;422;51.280;7.236;2024-02-26T02:38:35;4.60;;;3.20;;
870;SDS011;422;51.280;7.236;2024-02-26T02:41:03;4.97;;;4.23;;
870;SDS011;422;51.280;7.236;2024-02-26T02:43:30;3.93;;;3.33;;
870;SDS011;422;51.280;7.236;2024-02-26T02:45:57;4.67;;;3.67;;
870;SDS011;422;51.280;7.236;2024-02-26T02:48:27;5.97;;;3.33;;
870;SDS011;422;51.280;7.236;2024-02-26T02:50:55;4.73;;;3.00;;
870;SDS011;422;51.280;7.236;2024-02-26T02:53:22;3.83;;;3.03;;
870;SDS011;422;51.280;7.236;2024-02-26T02:55:51;4.13;;;3.70;;
870;SDS011;422;51.280;7.236;2024-02-26T02:58:18;4.53;;;3.17;;
870;SDS011;422;51.280;7.236;2024-02-26T03:00:45;5.80;;;4.17;;
870;SDS011;422;51.280;7.236;2024-02-26T03:03:13;5.13;;;3.43;;
870;SDS011;422;51.280;7.236;2024-02-26T03:05:40;4.40;;;3.00;;
870;SDS011;422;51.280;7.236;2024-02-26T03:08:07;4.70;;;3.17;;
870;SDS011;422;51.280;7.236;2024-02-26T03:10:35;4.40;;;3.20;;
870;SDS011;422;51.280;7.236;2024-02-26T03:13:04;5.73;;;3.33;;
870;SDS011;422;51.280;7.236;2024-02-26T03:15:31;3.73;;;3.13;;
870;SDS011;422;51.280;7.236;2024-02-26T03:17:59;4.50;;;3.20;;
870;SDS011;422;51.280;7.236;2024-02-26T03:20:26;5.57;;;3.60;;
870;SDS011;422;51.280;7.236;2024-02-26T03:22:53;4.30;;;3.20;;
870;SDS011;422;51.280;7.236;2024-02-26T03:25:21;6.00;;;4.03;;
870;SDS011;422;51.280;7.236;2024-02-26T03:27:48;4.07;;;3.37;;
870;SDS011;422;51.280;7.236;2024-02-26T03:30:17;6.60;;;3.10;;
870;SDS011;422;51.280;7.236;2024-02-26T03:32:44;5.07;;;3.90;;
870;SDS011;422;51.280;7.236;2024-02-26T03:35:12;5.13;;;3.60;;
870;SDS011;422;51.280;7.236;2024-02-26T03:37:39;4.60;;;3.70;;
870;SDS011;422;51.280;7.236;2024-02-26T03:40:07;4.67;;;3.60;;
870;SDS011;422;51.280;7.236;2024-02-26T03:42:34;5.00;;;2.97;;
870;SDS011;422;51.280;7.236;2024-02-26T03:45:02;5.57;;;3.00;;
870;SDS011;422;51.280;7.236;2024-02-26T03:47:31;3.70;;;3.17;;
870;SDS011;422;51.280;7.236;2024-02-26T03:49:58;4.20;;;3.20;;
870;SDS011;422;51.280;7.236;2024-02-26T03:52:25;3.77;;;3.17;;
870;SDS011;422;51.280;7.236;2024-02-26T03:54:52;4.13;;;2.93;;
870;SDS011;422;51.280;7.236;2024-02-26T03:57:20;4.80;;;3.50;;
870;SDS011;422;51.280;7.236;2024-02-26T03:59:47;4.40;;;3.40;;
870;SDS011;422;51.280;7.236;2024-02-26T04:02:14;3.50;;;3.00;;
870;SDS011;422;51.280;7.236;2024-02-26T04:04:46;3.83;;;3.27;;
870;SDS011;422;51.280;7.236;2024-02-26T04:07:13;4.03;;;3.40;;
870;SDS011;422;51.280;7.236;2024-02-26T04:09:40;5.63;;;3.30;;
870;SDS011;422;51.280;7.236;2024-02-26T04:12:08;4.87;;;3.50;;
870;SDS011;422;51.280;7.236;2024-02-26T04:14:36;5.00;;;3.00;;
870;SDS011;422;51.280;7.236;2024-02-26T04:17:03;6.90;;;3.90;;
870;SDS011;422;51.280;7.236;2024-02-26T04:19:30;4.53;;;3.40;;
870;SDS011;422;51.280;7.236;2024-02-26T04:21:59;4.20;;;3.40;;
870;SDS011;422;51.280;7.236;2024-02-26T04:24:26;6.30;;;3.07;;
870;SDS011;422;51.280;7.236;2024-02-26T04:26:53;4.90;;;3.50;;
870;SDS011;422;51.280;7.236;2024-02-26T04:29:21;4.73;;;3.60;;
870;SDS011;422;51.280;7.236;2024-02-26T04:31:48;5.70;;;3.70;;
870;SDS011;422;51.280;7.236;2024-02-26T04:34:15;4.03;;;3.40;;
870;SDS011;422;51.280;7.236;2024-02-26T04:36:42;5.40;;;3.33;;
870;SDS011;422;51.280;7.236;2024-02-26T04:39:11;4.23;;;3.57;;
870;SDS011;422;51.280;7.236;2024-02-26T04:41:39;5.90;;;3.80;;
870;SDS011;422;51.280;7.236;2024-02-26T04:44:06;5.33;;;3.47;;
870;SDS011;422;51.280;7.236;2024-02-26T04:46:33;5.07;;;3.40;;
870;SDS011;422;51.280;7.236;2024-02-26T04:49:00;4.80;;;3.97;;
870;SDS011;422;51.280;7.236;2024-02-26T04:51:27;5.60;;;3.20;;
870;SDS011;422;51.280;7.236;2024-02-26T04:53:55;4.83;;;3.70;;
870;SDS011;422;51.280;7.236;2024-02-26T04:56:24;4.53;;;3.37;;
870;SDS011;422;51.280;7.236;2024-02-26T04:58:51;5.43;;;3.10;;
870;SDS011;422;51.280;7.236;2024-02-26T05:01:19;6.10;;;3.70;;
870;SDS011;422;51.280;7.236;2024-02-26T05:03:46;4.30;;;3.33;;
870;SDS011;422;51.280;7.236;2024-02-26T05:06:14;4.27;;;3.87;;
870;SDS011;422;51.280;7.236;2024-02-26T05:08:41;6.87;;;3.20;;
870;SDS011;422;51.280;7.236;2024-02-26T05:11:09;4.90;;;3.60;;
870;SDS011;422;51.280;7.236;2024-02-26T05:13:38;4.00;;;3.47;;
870;SDS011;422;51.280;7.236;2024-02-26T05:16:05;5.10;;;4.10;;
870;SDS011;422;51.280;7.236;2024-02-26T05:18:32;4.40;;;3.73;;
870;SDS011;422;51.280;7.236;2024-02-26T05:21:00;5.67;;;4.10;;
870;SDS011;422;51.280;7.236;2024-02-26T05:23:28;4.63;;;3.60;;
870;SDS011;422;51.280;7.236;2024-02-26T05:25:55;4.80;;;4.30;;
870;SDS011;422;51.280;7.236;2024-02-26T05:28:23;6.40;;;3.73;;
870;SDS011;422;51.280;7.236;2024-02-26T05:30:51;5.33;;;3.97;;
870;SDS011;422;51.280;7.236;2024-02-26T05:33:19;4.40;;;3.70;;
870;SDS011;422;51.280;7.236;2024-02-26T05:35:47;6.17;;;4.17;;
870;SDS011;422;51.280;7.236;2024-02-26T05:38:14;4.80;;;4.10;;
870;SDS011;422;51.280;7.236;2024-02-26T05:40:41;5.20;;;4.37;;
870;SDS011;422;51.280;7.236;2024-02-26T05:43:08;5.47;;;4.60;;
870;SDS011;422;51.280;7.236;2024-02-26T05:45:36;4.90;;;4.20;;
870;SDS011;422;51.280;7.236;2024-02-26T05:48:05;5.53;;;4.50;;
870;SDS011;422;51.280;7.236;2024-02-26T05:50:32;7.23;;;4.53;;
870;SDS011;422;51.280;7.236;2024-02-26T05:52:59;5.80;;;4.13;;
870;SDS011;422;51.280;7.236;2024-02-26T05:55:27;5.70;;;3.97;;
870;SDS011;422;51.280;7.236;2024-02-26T05:57:54;5.50;;;4.53;;
870;SDS011;422;51.280;7.236;2024-02-26T06:00:21;7.23;;;5.33;;
870;SDS011;422;51.280;7.236;2024-02-26T06:02:48;5.90;;;4.70;;
870;SDS011;422;51.280;7.236;2024-02-26T06:05:17;7.27;;;5.40;;
870;SDS011;422;51.280;7.236;2024-02-26T06:07:44;5.80;;;4.60;;
870;SDS011;422;51.280;7.236;2024-02-26T06:10:12;5.37;;;4.50;;
870;SDS011;422;51.280;7.236;2024-02-26T06:12:40;5.07;;;4.57;;
870;SDS011;422;51.280;7.236;2024-02-26T06:15:07;6.83;;;4.37;;
870;SDS011;422;51.280;7.236;2024-02-26T06:17:35;5.77;;;4.23;;
870;SDS011;422;51.280;7.236;2024-02-26T06:20:02;6.37;;;4.27;;
870;SDS011;422;51.280;7.236;2024-02-26T06:22:33;5.63;;;4.73;;
870;SDS011;422;51.280;7.236;2024-02-26T06:25:00;7.43;;;5.20;;
870;SDS011;422;51.280;7.236;2024-02-26T06:27:27;6.53;;;5.43;;
870;SDS011;422;51.280;7.236;2024-02-26T06:29:55;6.63;;;5.00;;
870;SDS011;422;51.280;7.236;2024-02-26T06:32:22;6.00;;;4.87;;
870;SDS011;422;51.280;7.236;2024-02-26T06:34:49;5.47;;;4.30;;
870;SDS011;422;51.280;7.236;2024-02-26T06:37:16;8.00;;;4.87;;
870;SDS011;422;51.280;7.236;2024-02-26T06:39:45;5.27;;;4.67;;
870;SDS011;422;51.280;7.236;2024-02-26T06:42:12;6.00;;;5.00;;
870;SDS011;422;51.280;7.236;2024-02-26T06:44:40;6.13;;;5.10;;
870;SDS011;422;51.280;7.236;2024-02-26T06:47:07;5.40;;;4.90;;
870;SDS011;422;51.280;7.236;2024-02-26T06:49:34;6.90;;;5.17;;
870;SDS011;422;51.280;7.236;2024-02-26T06:52:01;6.20;;;5.43;;
870;SDS011;422;51.280;7.236;2024-02-26T06:54:29;6.33;;;4.80;;
870;SDS011;422;51.280;7.236;2024-02-26T06:56:58;5.73;;;5.17;;
870;SDS011;422;51.280;7.236;2024-02-26T06:59:25;5.83;;;5.23;;
870;SDS011;422;51.280;7.236;2024-02-26T07:01:54;7.50;;;4.97;;
870;SDS011;422;51.280;7.236;2024-02-26T07:04:21;6.47;;;5.30;;
870;SDS011;422;51.280;7.236;2024-02-26T07:06:49;5.33;;;4.60;;
870;SDS011;422;51.280;7.236;2024-02-26T07:09:16;6.70;;;5.60;;
870;SDS011;422;51.280;7.236;2024-02-26T07:11:43;7.20;;;5.40;;
870;SDS011;422;51.280;7.236;2024-02-26T07:14:12;10.83;;;5.40;;
870;SDS011;422;51.280;7.236;2024-02-26T07:16:39;8.53;;;5.40;;
870;SDS011;422;51.280;7.236;2024-02-26T07:19:06;5.90;;;4.83;;
870;SDS011;422;51.280;7.236;2024-02-26T07:21:34;7.00;;;4.80;;
870;SDS011;422;51.280;7.236;2024-02-26T07:24:01;6.20;;;4.97;;
870;SDS011;422;51.280;7.236;2024-02-26T07:26:29;9.23;;;5.17;;
870;SDS011;422;51.280;7.236;2024-02-26T07:28:56;6.20;;;5.60;;
870;SDS011;422;51.280;7.236;2024-02-26T07:31:25;5.70;;;5.00;;
870;SDS011;422;51.280;7.236;2024-02-26T07:33:52;7.13;;;5.50;;
870;SDS011;422;51.280;7.236;2024-02-26T07:36:19;7.00;;;5.33;;
870;SDS011;422;51.280;7.236;2024-02-26T07:38:47;6.80;;;5.33;;
870;SDS011;422;51.280;7.236;2024-02-26T07:41:14;9.17;;;5.17;;
870;SDS011;422;51.280;7.236;2024-02-26T07:43:41;5.50;;;5.00;;
870;SDS011;422;51.280;7.236;2024-02-26T07:46:10;6.00;;;5.10;;
870;SDS011;422;51.280;7.236;2024-02-26T07:48:39;6.10;;;4.80;;
870;SDS011;422;51.280;7.236;2024-02-26T07:51:07;8.60;;;5.00;;
870;SDS011;422;51.280;7.236;2024-02-26T07:53:35;6.80;;;5.93;;
870;SDS011;422;51.280;7.236;2024-02-26T07:56:03;5.60;;;5.10;;
870;SDS011;422;51.280;7.236;2024-02-26T07:58:47;5.60;;;5.00;;
870;SDS011;422;51.280;7.236;2024-02-26T08:01:14;9.00;;;5.13;;
870;SDS011;422;51.280;7.236;2024-02-26T08:03:43;6.50;;;4.97;;
870;SDS011;422;51.280;7.236;2024-02-26T08:06:10;8.90;;;5.33;;
870;SDS011;422;51.280;7.236;2024-02-26T08:08:38;5.83;;;5.03;;
870;SDS011;422;51.280;7.236;2024-02-26T08:11:05;8.60;;;5.63;;
870;SDS011;422;51.280;7.236;2024-02-26T08:13:34;6.10;;;5.50;;
870;SDS011;422;51.280;7.236;2024-02-26T08:16:01;7.37;;;5.50;;
870;SDS011;422;51.280;7.236;2024-02-26T08:18:29;5.03;;;4.53;;
870;SDS011;422;51.280;7.236;2024-02-26T08:20:58;8.20;;;5.33;;
870;SDS011;422;51.280;7.236;2024-02-26T08:23:25;5.80;;;5.10;;
870;SDS011;422;51.280;7.236;2024-02-26T08:25:52;6.00;;;5.40;;
870;SDS011;422;51.280;7.236;2024-02-26T08:28:19;8.33;;;5.33;;
870;SDS011;422;51.280;7.236;2024-02-26T08:30:47;8.40;;;5.80;;
870;SDS011;422;51.280;7.236;2024-02-26T08:33:14;6.20;;;5.17;;
870;SDS011;422;51.280;7.236;2024-02-26T08:35:42;6.10;;;5.50;;
870;SDS011;422;51.280;7.236;2024-02-26T08:38:11;6.27;;;5.50;;
870;SDS011;422;51.280;7.236;2024-02-26T08:40:38;6.00;;;5.13;;
870;SDS011;422;51.280;7.236;2024-02-26T08:43:05;7.20;;;5.67;;
870;SDS011;422;51.280;7.236;2024-02-26T08:45:33;7.10;;;4.83;;
870;SDS011;422;51.280;7.236;2024-02-26T08:48:01;6.60;;;4.50;;
870;SDS011;422;51.280;7.236;2024-02-26T08:50:29;6.37;;;5.67;;
870;SDS011;422;51.280;7.236;2024-02-26T08:52:56;7.40;;;5.00;;
870;SDS011;422;51.280;7.236;2024-02-26T08:55:25;6.00;;;4.97;;
870;SDS011;422;51.280;7.236;2024-02-26T08:57:53;6.10;;;5.20;;
870;SDS011;422;51.280;7.236;2024-02-26T09:00:21;8.50;;;5.53;;
870;SDS011;422;51.280;7.236;2024-02-26T09:02:48;7.40;;;4.70;;
870;SDS011;422;51.280;7.236;2024-02-26T09:05:15;6.10;;;5.13;;
870;SDS011;422;51.280;7.236;2024-02-26T09:07:43;8.70;;;4.93;;
870;SDS011;422;51.280;7.236;2024-02-26T09:10:11;6.83;;;4.70;;
870;SDS011;422;51.280;7.236;2024-02-26T09:12:41;6.10;;;5.20;;
870;SDS011;422;51.280;7.236;2024-02-26T09:15:08;5.47;;;4.80;;
870;SDS011;422;51.280;7.236;2024-02-26T09:17:36;7.40;;;5.00;;
870;SDS011;422;51.280;7.236;2024-02-26T09:20:06;7.07;;;5.53;;
870;SDS011;422;51.280;7.236;2024-02-26T09:22:34;9.87;;;5.43;;
870;SDS011;422;51.280;7.236;2024-02-26T09:25:03;6.43;;;5.20;;
870;SDS011;422;51.280;7.236;2024-02-26T09:27:31;6.57;;;5.60;;
870;SDS011;422;51.280;7.236;2024-02-26T09:30:00;5.77;;;4.97;;
870;SDS011;422;51.280;7.236;2024-02-26T09:32:28;6.30;;;4.87;;
870;SDS011;422;51.280;7.236;2024-02-26T09:34:55;7.33;;;5.47;;
870;SDS011;422;51.280;7.236;2024-02-26T09:37:23;5.80;;;4.90;;
870;SDS011;422;51.280;7.236;2024-02-26T09:39:50;8.47;;;5.37;;
870;SDS011;422;51.280;7.236;2024-02-26T09:42:18;5.77;;;5.10;;
870;SDS011;422;51.280;7.236;2024-02-26T09:44:45;7.60;;;5.80;;
870;SDS011;422;51.280;7.236;2024-02-26T09:47:17;5.80;;;5.20;;
870;SDS011;422;51.280;7.236;2024-02-26T09:49:46;5.80;;;5.20;;
870;SDS011;422;51.280;7.236;2024-02-26T09:52:14;5.43;;;4.60;;
870;SDS011;422;51.280;7.236;2024-02-26T09:54:42;6.77;;;5.10;;
870;SDS011;422;51.280;7.236;2024-02-26T09:57:14;6.60;;;4.80;;
870;SDS011;422;51.280;7.236;2024-02-26T09:59:43;7.30;;;5.33;;
870;SDS011;422;51.280;7.236;2024-02-26T10:02:11;5.93;;;5.33;;
870;SDS011;422;51.280;7.236;2024-02-26T10:04:41;6.43;;;5.00;;
870;SDS011;422;51.280;7.236;2024-02-26T10:07:09;5.50;;;4.70;;
870;SDS011;422;51.280;7.236;2024-02-26T10:09:38;10.53;;;5.77;;
870;SDS011;422;51.280;7.236;2024-02-26T10:12:07;6.70;;;5.13;;
870;SDS011;422;51.280;7.236;2024-02-26T10:14:36;6.10;;;4.83;;
870;SDS011;422;51.280;7.236;2024-02-26T10:17:03;7.00;;;5.13;;
870;SDS011;422;51.280;7.236;2024-02-26T10:19:33;7.40;;;5.20;;
870;SDS011;422;51.280;7.236;2024-02-26T10:22:02;5.73;;;5.07;;
870;SDS011;422;51.280;7.236;2024-02-26T10:24:30;6.13;;;5.53;;
870;SDS011;422;51.280;7.236;2024-02-26T10:26:59;5.77;;;5.17;;
870;SDS011;422;51.280;7.236;2024-02-26T10:29:27;6.40;;;5.00;;
870;SDS011;422;51.280;7.236;2024-02-26T10:31:54;6.70;;;5.10;;
870;SDS011;422;51.280;7.236;2024-02-26T10:34:22;6.00;;;4.87;;
870;SDS011;422;51.280;7.236;2024-02-26T10:36:50;7.50;;;5.50;;
870;SDS011;422;51.280;7.236;2024-02-26T10:39:19;6.20;;;5.60;;
870;SDS011;422;51.280;7.236;2024-02-26T10:41:47;5.83;;;5.13;;
870;SDS011;422;51.280;7.236;2024-02-26T10:44:14;7.10;;;5.60;;
870;SDS011;422;51.280;7.236;2024-02-26T10:46:41;6.57;;;5.87;;
870;SDS011;422;51.280;7.236;2024-02-26T10:49:13;6.83;;;6.23;;
870;SDS011;422;51.280;7.236;2024-02-26T10:51:44;11.93;;;6.00;;
870;SDS011;422;51.280;7.236;2024-02-26T10:54:15;5.80;;;5.20;;
870;SDS011;422;51.280;7.236;2024-02-26T10:56:46;9.43;;;6.13;;
870;SDS011;422;51.280;7.236;2024-02-26T10:59:16;6.60;;;5.07;;
870;SDS011;422;51.280;7.236;2024-02-26T11:01:46;6.13;;;5.23;;
870;SDS011;422;51.280;7.236;2024-02-26T11:04:15;7.53;;;6.27;;
870;SDS011;422;51.280;7.236;2024-02-26T11:06:43;6.53;;;5.93;;
870;SDS011;422;51.280;7.236;2024-02-26T11:09:12;7.60;;;5.67;;
870;SDS011;422;51.280;7.236;2024-02-26T11:11:41;7.90;;;5.67;;
870;SDS011;422;51.280;7.236;2024-02-26T11:14:10;7.63;;;5.73;;
870;SDS011;422;51.280;7.236;2024-02-26T11:16:39;7.30;;;5.93;;
870;SDS011;422;51.280;7.236;2024-02-26T11:19:08;8.83;;;6.17;;
870;SDS011;422;51.280;7.236;2024-02-26T11:21:36;7.23;;;6.43;;
870;SDS011;422;51.280;7.236;2024-02-26T11:24:13;7.90;;;5.77;;
870;SDS011;422;51.280;7.236;2024-02-26T11:26:45;7.40;;;6.00;;
870;SDS011;422;51.280;7.236;2024-02-26T11:29:22;9.27;;;6.43;;
870;SDS011;422;51.280;7.236;2024-02-26T11:31:52;8.73;;;6.07;;
870;SDS011;422;51.280;7.236;2024-02-26T11:34:20;6.87;;;5.87;;
870;SDS011;422;51.280;7.236;2024-02-26T11:36:48;8.10;;;6.37;;
870;SDS011;422;51.280;7.236;2024-02-26T11:39:16;7.50;;;6.33;;
870;SDS011;422;51.280;7.236;2024-02-26T11:41:44;7.27;;;6.50;;
870;SDS011;422;51.280;7.236;2024-02-26T11:44:11;7.17;;;6.03;;
870;SDS011;422;51.280;7.236;2024-02-26T11:46:41;8.00;;;6.17;;
870;SDS011;422;51.280;7.236;2024-02-26T11:51:59;7.57;;;6.83;;
870;SDS011;422;51.280;7.236;2024-02-26T11:57:24;10.10;;;7.60;;
870;SDS011;422;51.280;7.236;2024-02-26T11:59:53;8.17;;;7.33;;
870;SDS011;422;51.280;7.236;2024-02-26T12:05:11;8.10;;;6.80;;
870;SDS011;422;51.280;7.236;2024-02-26T12:07:42;8.33;;;6.93;;
870;SDS011;422;51.280;7.236;2024-02-26T12:10:22;10.30;;;7.10;;
870;SDS011;422;51.280;7.236;2024-02-26T12:12:54;9.83;;;7.87;;
870;SDS011;422;51.280;7.236;2024-02-26T12:15:30;10.33;;;8.67;;
870;SDS011;422;51.280;7.236;2024-02-26T12:18:01;9.03;;;7.50;;
870;SDS011;422;51.280;7.236;2024-02-26T12:20:30;13.57;;;8.60;;
870;SDS011;422;51.280;7.236;2024-02-26T12:22:58;10.70;;;8.40;;
870;SDS011;422;51.280;7.236;2024-02-26T12:25:28;11.50;;;8.60;;
870;SDS011;422;51.280;7.236;2024-02-26T12:27:59;11.87;;;9.17;;
870;SDS011;422;51.280;7.236;2024-02-26T12:30:26;10.10;;;8.80;;
870;SDS011;422;51.280;7.236;2024-02-26T12:32:56;12.27;;;9.27;;
870;SDS011;422;51.280;7.236;2024-02-26T12:35:27;13.00;;;10.17;;
870;SDS011;422;51.280;7.236;2024-02-26T12:37:57;14.60;;;10.43;;
870;SDS011;422;51.280;7.236;2024-02-26T12:40:25;10.97;;;9.63;;
870;SDS011;422;51.280;7.236;2024-02-26T12:42:53;12.70;;;10.33;;
870;SDS011;422;51.280;7.236;2024-02-26T12:45:21;14.13;;;10.83;;
870;SDS011;422;51.280;7.236;2024-02-26T12:47:49;14.43;;;10.40;;
870;SDS011;422;51.280;7.236;2024-02-26T12:50:18;12.83;;;10.00;;
870;SDS011;422;51.280;7.236;2024-02-26T12:52:47;12.93;;;10.20;;
870;SDS011;422;51.280;7.236;2024-02-26T12:55:18;11.67;;;9.47;;
870;SDS011;422;51.280;7.236;2024-02-26T12:57:46;15.93;;;10.57;;
870;SDS011;422;51.280;7.236;2024-02-26T13:00:16;12.73;;;9.63;;
870;SDS011;422;51.280;7.236;2024-02-26T13:02:47;10.37;;;9.27;;
870;SDS011;422;51.280;7.236;2024-02-26T13:05:17;10.53;;;8.90;;
870;SDS011;422;51.280;7.236;2024-02-26T13:07:50;10.40;;;9.10;;
870;SDS011;422;51.280;7.236;2024-02-26T13:10:19;10.40;;;8.60;;
870;SDS011;422;51.280;7.236;2024-02-26T13:12:47;11.37;;;8.63;;
870;SDS011;422;51.280;7.236;2024-02-26T13:15:17;11.30;;;8.33;;
870;SDS011;422;51.280;7.236;2024-02-26T13:17:46;8.37;;;7.07;;
870;SDS011;422;51.280;7.236;2024-02-26T13:20:24;9.10;;;7.20;;
870;SDS011;422;51.280;7.236;2024-02-26T13:23:01;8.40;;;7.17;;
870;SDS011;422;51.280;7.236;2024-02-26T13:25:28;8.23;;;7.07;;
870;SDS011;422;51.280;7.236;2024-02-26T13:28:05;8.20;;;6.63;;
870;SDS011;422;51.280;7.236;2024-02-26T13:30:34;7.90;;;7.07;;
870;SDS011;422;51.280;7.236;2024-02-26T13:33:07;8.23;;;6.33;;
870;SDS011;422;51.280;7.236;2024-02-26T13:35:36;9.00;;;6.90;;
870;SDS011;422;51.280;7.236;2024-02-26T13:38:05;8.50;;;6.30;;
870;SDS011;422;51.280;7.236;2024-02-26T13:40:33;8.17;;;6.30;;
870;SDS011;422;51.280;7.236;2024-02-26T13:43:00;9.63;;;7.80;;
870;SDS011;422;51.280;7.236;2024-02-26T13:45:28;8.47;;;7.00;;
870;SDS011;422;51.280;7.236;2024-02-26T13:47:59;7.97;;;6.73;;
870;SDS011;422;51.280;7.236;2024-02-26T13:50:29;7.93;;;6.73;;
870;SDS011;422;51.280;7.236;2024-02-26T13:52:57;8.07;;;7.20;;
870;SDS011;422;51.280;7.236;2024-02-26T13:55:26;9.37;;;7.83;;
870;SDS011;422;51.280;7.236;2024-02-26T13:57:56;12.40;;;7.30;;
870;SDS011;422;51.280;7.236;2024-02-26T14:00:23;11.07;;;8.10;;
870;SDS011;422;51.280;7.236;2024-02-26T14:02:54;11.10;;;8.63;;
870;SDS011;422;51.280;7.236;2024-02-26T14:05:26;10.50;;;8.33;;
870;SDS011;422;51.280;7.236;2024-02-26T14:07:54;10.40;;;8.67;;
870;SDS011;422;51.280;7.236;2024-02-26T14:10:22;9.23;;;8.23;;
870;SDS011;422;51.280;7.236;2024-02-26T14:12:51;9.03;;;7.90;;
870;SDS011;422;51.280;7.236;2024-02-26T14:15:19;9.10;;;8.20;;
870;SDS011;422;51.280;7.236;2024-02-26T14:17:46;10.77;;;7.70;;
870;SDS011;422;51.280;7.236;2024-02-26T14:20:20;7.50;;;6.40;;
870;SDS011;422;51.280;7.236;2024-02-26T14:22:47;9.47;;;7.10;;
870;SDS011;422;51.280;7.236;2024-02-26T14:25:16;8.33;;;7.37;;
870;SDS011;422;51.280;7.236;2024-02-26T14:27:43;11.03;;;8.07;;
870;SDS011;422;51.280;7.236;2024-02-26T14:30:13;9.57;;;7.83;;
870;SDS011;422;51.280;7.236;2024-02-26T14:32:40;10.17;;;7.70;;
870;SDS011;422;51.280;7.236;2024-02-26T14:35:09;8.30;;;7.30;;
870;SDS011;422;51.280;7.236;2024-02-26T14:37:36;8.33;;;6.87;;
870;SDS011;422;51.280;7.236;2024-02-26T14:40:05;8.50;;;7.70;;
870;SDS011;422;51.280;7.236;2024-02-26T14:42:34;9.57;;;8.00;;
870;SDS011;422;51.280;7.236;2024-02-26T14:45:02;11.93;;;7.60;;
870;SDS011;422;51.280;7.236;2024-02-26T14:47:33;8.47;;;7.57;;
870;SDS011;422;51.280;7.236;2024-02-26T14:50:01;8.93;;;6.90;;
870;SDS011;422;51.280;7.236;2024-02-26T14:52:29;9.30;;;7.90;;
870;SDS011;422;51.280;7.236;2024-02-26T14:54:56;9.37;;;8.20;;
870;SDS011;422;51.280;7.236;2024-02-26T14:57:24;8.57;;;7.00;;
870;SDS011;422;51.280;7.236;2024-02-26T14:59:52;8.87;;;7.97;;
870;SDS011;422;51.280;7.236;2024-02-26T15:02:19;8.67;;;7.77;;
870;SDS011;422;51.280;7.236;2024-02-26T15:04:49;10.60;;;7.43;;
870;SDS011;422;51.280;7.236;2024-02-26T15:07:17;9.57;;;8.53;;
870;SDS011;422;51.280;7.236;2024-02-26T15:09:45;9.40;;;8.30;;
870;SDS011;422;51.280;7.236;2024-02-26T15:12:16;15.63;;;10.53;;
870;SDS011;422;51.280;7.236;2024-02-26T15:14:45;12.87;;;9.70;;
870;SDS011;422;51.280;7.236;2024-02-26T15:17:13;13.93;;;10.53;;
870;SDS011;422;51.280;7.236;2024-02-26T15:19:41;11.30;;;10.07;;
870;SDS011;422;51.280;7.236;2024-02-26T15:22:10;13.80;;;10.07;;
870;SDS011;422;51.280;7.236;2024-02-26T15:24:37;11.10;;;9.90;;
870;SDS011;422;51.280;7.236;2024-02-26T15:27:05;14.23;;;10.77;;
870;SDS011;422;51.280;7.236;2024-02-26T15:29:32;14.20;;;9.83;;
870;SDS011;422;51.280;7.236;2024-02-26T15:32:01;17.47;;;9.67;;
870;SDS011;422;51.280;7.236;2024-02-26T15:34:29;13.53;;;9.77;;
870;SDS011;422;51.280;7.236;2024-02-26T15:36:56;13.70;;;10.33;;
870;SDS011;422;51.280;7.236;2024-02-26T15:39:26;11.13;;;9.27;;
870;SDS011;422;51.280;7.236;2024-02-26T15:41:53;12.83;;;8.93;;
870;SDS011;422;51.280;7.236;2024-02-26T15:44:22;12.40;;;9.70;;
870;SDS011;422;51.280;7.236;2024-02-26T15:46:50;10.90;;;8.90;;
870;SDS011;422;51.280;7.236;2024-02-26T15:49:18;11.33;;;8.47;;
870;SDS011;422;51.280;7.236;2024-02-26T15:51:46;9.73;;;8.73;;
870;SDS011;422;51.280;7.236;2024-02-26T15:54:13;10.13;;;8.47;;
870;SDS011;422;51.280;7.236;2024-02-26T15:56:42;9.50;;;8.50;;